sensor_id;sensor_type;location;lat;lon;timestamp;P1;durP1;ratioP1;P2;durP2;ratioP2
11171;SDS011;5642;50.830;12.082;2023-12-20T00:02:14;0.80;;;0.80;;
11171;SDS011;5642;50.830;12.082;2023-12-20T00:05:00;0.63;;;0.63;;
11171;SDS011;5642;50.830;12.082;2023-12-20T00:07:37;0.60;;;0.60;;
11171;SDS011;5642;50.830;12.082;2023-12-20T00:10:08;0.60;;;0.60;;
11171;SDS011;5642;50.830;12.082;2023-12-20T00:12:54;0.60;;;0.60;;
11171;SDS011;5642;50.830;12.082;2023-12-20T00:15:36;0.50;;;0.50;;
11171;SDS011;5642;50.830;12.082;2023-12-20T00:18:17;0.50;;;0.50;;
11171;SDS011;5642;50.830;12.082;2023-12-20T00:20:45;0.60;;;0.60;;
11171;SDS011;5642;50.830;12.082;2023-12-20T00:23:25;0.60;;;0.60;;
11171;SDS011;5642;50.830;12.082;2023-12-20T00:26:18;0.60;;;0.60;;
11171;SDS011;5642;50.830;12.082;2023-12-20T00:28:45;0.70;;;0.70;;
11171;SDS011;5642;50.830;12.082;2023-12-20T00:31:29;0.50;;;0.50;;
11171;SDS011;5642;50.830;12.082;2023-12-20T00:34:16;0.60;;;0.60;;
11171;SDS011;5642;50.830;12.082;2023-12-20T00:36:44;0.50;;;0.50;;
11171;SDS011;5642;50.830;12.082;2023-12-20T00:39:21;0.55;;;0.55;;
11171;SDS011;5642;50.830;12.082;2023-12-20T00:42:01;0.40;;;0.40;;
11171;SDS011;5642;50.830;12.082;2023-12-20T00:44:52;0.40;;;0.40;;
11171;SDS011;5642;50.830;12.082;2023-12-20T00:47:35;0.50;;;0.50;;
11171;SDS011;5642;50.830;12.082;2023-12-20T00:50:08;0.43;;;0.43;;
11171;SDS011;5642;50.830;12.082;2023-12-20T00:52:36;0.47;;;0.47;;
11171;SDS011;5642;50.830;12.082;2023-12-20T00:55:12;0.32;;;0.32;;
11171;SDS011;5642;50.830;12.082;2023-12-20T00:57:39;0.30;;;0.30;;
11171;SDS011;5642;50.830;12.082;2023-12-20T01:00:06;0.40;;;0.40;;
11171;SDS011;5642;50.830;12.082;2023-12-20T01:02:53;0.30;;;0.30;;
11171;SDS011;5642;50.830;12.082;2023-12-20T01:05:30;0.32;;;0.32;;
11171;SDS011;5642;50.830;12.082;2023-12-20T01:07:57;0.30;;;0.30;;
11171;SDS011;5642;50.830;12.082;2023-12-20T01:10:32;0.40;;;0.40;;
11171;SDS011;5642;50.830;12.082;2023-12-20T01:13:09;0.28;;;0.28;;
11171;SDS011;5642;50.830;12.082;2023-12-20T01:15:42;0.30;;;0.30;;
11171;SDS011;5642;50.830;12.082;2023-12-20T01:18:33;0.40;;;0.40;;
11171;SDS011;5642;50.830;12.082;2023-12-20T01:21:04;0.40;;;0.40;;
11171;SDS011;5642;50.830;12.082;2023-12-20T01:23:34;0.28;;;0.28;;
11171;SDS011;5642;50.830;12.082;2023-12-20T01:26:09;0.30;;;0.30;;
11171;SDS011;5642;50.830;12.082;2023-12-20T01:28:46;0.30;;;0.30;;
11171;SDS011;5642;50.830;12.082;2023-12-20T01:31:17;0.30;;;0.30;;
11171;SDS011;5642;50.830;12.082;2023-12-20T01:33:44;0.40;;;0.40;;
11171;SDS011;5642;50.830;12.082;2023-12-20T01:36:20;0.40;;;0.40;;
11171;SDS011;5642;50.830;12.082;2023-12-20T01:39:00;0.30;;;0.30;;
11171;SDS011;5642;50.830;12.082;2023-12-20T01:41:40;0.20;;;0.20;;
11171;SDS011;5642;50.830;12.082;2023-12-20T01:44:15;0.20;;;0.20;;
11171;SDS011;5642;50.830;12.082;2023-12-20T01:46:42;0.30;;;0.30;;
11171;SDS011;5642;50.830;12.082;2023-12-20T01:49:27;0.20;;;0.20;;
11171;SDS011;5642;50.830;12.082;2023-12-20T01:52:15;0.20;;;0.20;;
11171;SDS011;5642;50.830;12.082;2023-12-20T01:54:54;0.20;;;0.20;;
11171;SDS011;5642;50.830;12.082;2023-12-20T01:57:34;0.20;;;0.20;;
11171;SDS011;5642;50.830;12.082;2023-12-20T02:00:18;0.20;;;0.20;;
11171;SDS011;5642;50.830;12.082;2023-12-20T02:02:50;0.30;;;0.30;;
11171;SDS011;5642;50.830;12.082;2023-12-20T02:05:19;0.20;;;0.20;;
11171;SDS011;5642;50.830;12.082;2023-12-20T02:07:54;0.20;;;0.20;;
11171;SDS011;5642;50.830;12.082;2023-12-20T02:10:26;0.20;;;0.20;;
11171;SDS011;5642;50.830;12.082;2023-12-20T02:12:56;0.20;;;0.20;;
11171;SDS011;5642;50.830;12.082;2023-12-20T02:15:29;0.10;;;0.10;;
11171;SDS011;5642;50.830;12.082;2023-12-20T02:17:56;0.20;;;0.20;;
11171;SDS011;5642;50.830;12.082;2023-12-20T02:20:30;0.15;;;0.15;;
11171;SDS011;5642;50.830;12.082;2023-12-20T02:23:02;0.30;;;0.30;;
11171;SDS011;5642;50.830;12.082;2023-12-20T02:25:28;0.20;;;0.20;;
11171;SDS011;5642;50.830;12.082;2023-12-20T02:28:03;0.25;;;0.25;;
11171;SDS011;5642;50.830;12.082;2023-12-20T02:30:42;0.20;;;0.20;;
11171;SDS011;5642;50.830;12.082;2023-12-20T02:33:35;0.20;;;0.20;;
11171;SDS011;5642;50.830;12.082;2023-12-20T02:36:28;0.20;;;0.20;;
11171;SDS011;5642;50.830;12.082;2023-12-20T02:38:55;0.10;;;0.10;;
11171;SDS011;5642;50.830;12.082;2023-12-20T02:41:32;0.10;;;0.10;;
11171;SDS011;5642;50.830;12.082;2023-12-20T02:44:14;0.20;;;0.20;;
11171;SDS011;5642;50.830;12.082;2023-12-20T02:46:54;0.30;;;0.30;;
11171;SDS011;5642;50.830;12.082;2023-12-20T02:49:27;0.10;;;0.10;;
11171;SDS011;5642;50.830;12.082;2023-12-20T02:52:12;0.30;;;0.30;;
11171;SDS011;5642;50.830;12.082;2023-12-20T02:54:45;0.10;;;0.10;;
11171;SDS011;5642;50.830;12.082;2023-12-20T02:57:12;0.20;;;0.20;;
11171;SDS011;5642;50.830;12.082;2023-12-20T02:59:38;0.20;;;0.20;;
11171;SDS011;5642;50.830;12.082;2023-12-20T03:02:27;0.22;;;0.22;;
11171;SDS011;5642;50.830;12.082;2023-12-20T03:05:02;0.17;;;0.17;;
11171;SDS011;5642;50.830;12.082;2023-12-20T03:07:29;0.20;;;0.20;;
11171;SDS011;5642;50.830;12.082;2023-12-20T03:10:05;0.20;;;0.20;;
11171;SDS011;5642;50.830;12.082;2023-12-20T03:12:33;0.10;;;0.10;;
11171;SDS011;5642;50.830;12.082;2023-12-20T03:15:14;0.10;;;0.10;;
11171;SDS011;5642;50.830;12.082;2023-12-20T03:17:44;0.17;;;0.17;;
11171;SDS011;5642;50.830;12.082;2023-12-20T03:20:22;0.10;;;0.10;;
11171;SDS011;5642;50.830;12.082;2023-12-20T03:23:04;0.20;;;0.20;;
11171;SDS011;5642;50.830;12.082;2023-12-20T03:25:32;0.20;;;0.20;;
11171;SDS011;5642;50.830;12.082;2023-12-20T03:28:17;0.20;;;0.20;;
11171;SDS011;5642;50.830;12.082;2023-12-20T03:30:55;0.10;;;0.10;;
11171;SDS011;5642;50.830;12.082;2023-12-20T03:33:21;0.28;;;0.20;;
11171;SDS011;5642;50.830;12.082;2023-12-20T03:36:02;0.20;;;0.20;;
11171;SDS011;5642;50.830;12.082;2023-12-20T03:38:50;0.28;;;0.28;;
11171;SDS011;5642;50.830;12.082;2023-12-20T03:41:22;0.20;;;0.20;;
11171;SDS011;5642;50.830;12.082;2023-12-20T03:44:04;0.20;;;0.20;;
11171;SDS011;5642;50.830;12.082;2023-12-20T03:46:31;0.13;;;0.13;;
11171;SDS011;5642;50.830;12.082;2023-12-20T03:49:21;0.20;;;0.20;;
11171;SDS011;5642;50.830;12.082;2023-12-20T03:51:57;0.20;;;0.20;;
11171;SDS011;5642;50.830;12.082;2023-12-20T03:54:24;0.20;;;0.20;;
11171;SDS011;5642;50.830;12.082;2023-12-20T03:56:55;0.20;;;0.20;;
11171;SDS011;5642;50.830;12.082;2023-12-20T03:59:35;0.20;;;0.20;;
11171;SDS011;5642;50.830;12.082;2023-12-20T04:02:20;0.25;;;0.25;;
11171;SDS011;5642;50.830;12.082;2023-12-20T04:04:48;0.20;;;0.20;;
11171;SDS011;5642;50.830;12.082;2023-12-20T04:07:14;0.20;;;0.20;;
11171;SDS011;5642;50.830;12.082;2023-12-20T04:09:56;0.20;;;0.20;;
11171;SDS011;5642;50.830;12.082;2023-12-20T04:12:28;0.20;;;0.20;;
11171;SDS011;5642;50.830;12.082;2023-12-20T04:14:54;0.20;;;0.20;;
11171;SDS011;5642;50.830;12.082;2023-12-20T04:17:32;0.30;;;0.30;;
11171;SDS011;5642;50.830;12.082;2023-12-20T04:19:58;0.20;;;0.20;;
11171;SDS011;5642;50.830;12.082;2023-12-20T04:22:39;0.17;;;0.17;;
11171;SDS011;5642;50.830;12.082;2023-12-20T04:25:16;0.20;;;0.20;;
11171;SDS011;5642;50.830;12.082;2023-12-20T04:28:02;0.30;;;0.30;;
11171;SDS011;5642;50.830;12.082;2023-12-20T04:30:35;0.30;;;0.30;;
11171;SDS011;5642;50.830;12.082;2023-12-20T04:33:07;0.20;;;0.20;;
11171;SDS011;5642;50.830;12.082;2023-12-20T04:35:38;0.30;;;0.30;;
11171;SDS011;5642;50.830;12.082;2023-12-20T04:38:37;0.30;;;0.30;;
11171;SDS011;5642;50.830;12.082;2023-12-20T04:41:04;0.32;;;0.32;;
11171;SDS011;5642;50.830;12.082;2023-12-20T04:43:49;0.30;;;0.30;;
11171;SDS011;5642;50.830;12.082;2023-12-20T04:46:15;0.35;;;0.35;;
11171;SDS011;5642;50.830;12.082;2023-12-20T04:49:00;0.10;;;0.10;;
11171;SDS011;5642;50.830;12.082;2023-12-20T04:51:40;0.20;;;0.20;;
11171;SDS011;5642;50.830;12.082;2023-12-20T04:54:17;0.20;;;0.20;;
11171;SDS011;5642;50.830;12.082;2023-12-20T04:57:07;0.30;;;0.20;;
11171;SDS011;5642;50.830;12.082;2023-12-20T04:59:53;0.20;;;0.20;;
11171;SDS011;5642;50.830;12.082;2023-12-20T05:02:39;0.15;;;0.15;;
11171;SDS011;5642;50.830;12.082;2023-12-20T05:05:19;0.20;;;0.20;;
11171;SDS011;5642;50.830;12.082;2023-12-20T05:08:01;0.20;;;0.20;;
11171;SDS011;5642;50.830;12.082;2023-12-20T05:10:48;0.13;;;0.13;;
11171;SDS011;5642;50.830;12.082;2023-12-20T05:13:29;0.17;;;0.17;;
11171;SDS011;5642;50.830;12.082;2023-12-20T05:16:05;0.20;;;0.20;;
11171;SDS011;5642;50.830;12.082;2023-12-20T05:18:50;0.22;;;0.22;;
11171;SDS011;5642;50.830;12.082;2023-12-20T05:21:27;0.10;;;0.10;;
11171;SDS011;5642;50.830;12.082;2023-12-20T05:24:00;0.20;;;0.20;;
11171;SDS011;5642;50.830;12.082;2023-12-20T05:26:42;0.20;;;0.20;;
11171;SDS011;5642;50.830;12.082;2023-12-20T05:29:15;0.20;;;0.20;;
11171;SDS011;5642;50.830;12.082;2023-12-20T05:31:57;0.20;;;0.20;;
11171;SDS011;5642;50.830;12.082;2023-12-20T05:34:39;0.30;;;0.30;;
11171;SDS011;5642;50.830;12.082;2023-12-20T05:37:24;0.47;;;0.22;;
11171;SDS011;5642;50.830;12.082;2023-12-20T05:40:06;0.30;;;0.30;;
11171;SDS011;5642;50.830;12.082;2023-12-20T05:42:59;0.20;;;0.20;;
11171;SDS011;5642;50.830;12.082;2023-12-20T05:45:38;0.30;;;0.30;;
11171;SDS011;5642;50.830;12.082;2023-12-20T05:48:04;0.28;;;0.28;;
11171;SDS011;5642;50.830;12.082;2023-12-20T05:50:51;0.20;;;0.20;;
11171;SDS011;5642;50.830;12.082;2023-12-20T05:53:22;0.20;;;0.20;;
11171;SDS011;5642;50.830;12.082;2023-12-20T05:56:07;0.30;;;0.30;;
11171;SDS011;5642;50.830;12.082;2023-12-20T05:58:53;0.40;;;0.40;;
11171;SDS011;5642;50.830;12.082;2023-12-20T06:01:52;0.20;;;0.20;;
11171;SDS011;5642;50.830;12.082;2023-12-20T06:04:37;0.32;;;0.32;;
11171;SDS011;5642;50.830;12.082;2023-12-20T06:07:24;0.40;;;0.40;;
11171;SDS011;5642;50.830;12.082;2023-12-20T06:09:56;0.40;;;0.40;;
11171;SDS011;5642;50.830;12.082;2023-12-20T06:12:58;0.30;;;0.30;;
11171;SDS011;5642;50.830;12.082;2023-12-20T06:15:39;0.40;;;0.40;;
11171;SDS011;5642;50.830;12.082;2023-12-20T06:18:16;0.30;;;0.30;;
11171;SDS011;5642;50.830;12.082;2023-12-20T06:21:01;0.50;;;0.50;;
11171;SDS011;5642;50.830;12.082;2023-12-20T06:26:47;0.50;;;0.40;;
11171;SDS011;5642;50.830;12.082;2023-12-20T06:29:38;0.30;;;0.30;;
11171;SDS011;5642;50.830;12.082;2023-12-20T06:32:23;0.30;;;0.30;;
11171;SDS011;5642;50.830;12.082;2023-12-20T06:35:16;0.30;;;0.30;;
11171;SDS011;5642;50.830;12.082;2023-12-20T06:38:11;0.40;;;0.40;;
11171;SDS011;5642;50.830;12.082;2023-12-20T06:40:49;0.35;;;0.35;;
11171;SDS011;5642;50.830;12.082;2023-12-20T06:43:40;0.30;;;0.30;;
11171;SDS011;5642;50.830;12.082;2023-12-20T06:46:16;0.40;;;0.40;;
11171;SDS011;5642;50.830;12.082;2023-12-20T06:48:42;0.25;;;0.25;;
11171;SDS011;5642;50.830;12.082;2023-12-20T06:51:20;0.30;;;0.30;;
11171;SDS011;5642;50.830;12.082;2023-12-20T06:53:46;0.60;;;0.50;;
11171;SDS011;5642;50.830;12.082;2023-12-20T06:56:30;0.30;;;0.30;;
11171;SDS011;5642;50.830;12.082;2023-12-20T06:59:14;0.30;;;0.30;;
11171;SDS011;5642;50.830;12.082;2023-12-20T07:01:47;0.45;;;0.45;;
11171;SDS011;5642;50.830;12.082;2023-12-20T07:04:22;0.30;;;0.30;;
11171;SDS011;5642;50.830;12.082;2023-12-20T07:07:10;0.60;;;0.60;;
11171;SDS011;5642;50.830;12.082;2023-12-20T07:09:46;0.40;;;0.40;;
11171;SDS011;5642;50.830;12.082;2023-12-20T07:12:29;0.40;;;0.40;;
11171;SDS011;5642;50.830;12.082;2023-12-20T07:14:56;0.70;;;0.70;;
11171;SDS011;5642;50.830;12.082;2023-12-20T07:17:40;0.63;;;0.63;;
11171;SDS011;5642;50.830;12.082;2023-12-20T07:20:20;0.43;;;0.43;;
11171;SDS011;5642;50.830;12.082;2023-12-20T07:23:08;0.60;;;0.60;;
11171;SDS011;5642;50.830;12.082;2023-12-20T07:25:46;0.50;;;0.50;;
11171;SDS011;5642;50.830;12.082;2023-12-20T07:28:47;0.40;;;0.40;;
11171;SDS011;5642;50.830;12.082;2023-12-20T07:31:26;0.50;;;0.50;;
11171;SDS011;5642;50.830;12.082;2023-12-20T07:34:26;0.50;;;0.50;;
11171;SDS011;5642;50.830;12.082;2023-12-20T07:37:13;0.43;;;0.43;;
11171;SDS011;5642;50.830;12.082;2023-12-20T07:39:52;0.57;;;0.57;;
11171;SDS011;5642;50.830;12.082;2023-12-20T07:42:45;0.50;;;0.50;;
11171;SDS011;5642;50.830;12.082;2023-12-20T07:45:47;0.70;;;0.70;;
11171;SDS011;5642;50.830;12.082;2023-12-20T07:48:40;1.38;;;1.15;;
11171;SDS011;5642;50.830;12.082;2023-12-20T07:51:38;4.25;;;3.35;;
11171;SDS011;5642;50.830;12.082;2023-12-20T07:54:44;2.38;;;1.73;;
11171;SDS011;5642;50.830;12.082;2023-12-20T07:57:34;2.38;;;2.05;;
11171;SDS011;5642;50.830;12.082;2023-12-20T08:00:28;1.70;;;1.58;;
11171;SDS011;5642;50.830;12.082;2023-12-20T08:03:35;1.40;;;1.30;;
11171;SDS011;5642;50.830;12.082;2023-12-20T08:06:23;2.53;;;2.05;;
11171;SDS011;5642;50.830;12.082;2023-12-20T08:09:08;2.08;;;1.55;;
11171;SDS011;5642;50.830;12.082;2023-12-20T08:11:59;1.25;;;1.13;;
11171;SDS011;5642;50.830;12.082;2023-12-20T08:14:36;1.17;;;1.10;;
11171;SDS011;5642;50.830;12.082;2023-12-20T08:17:14;0.90;;;0.90;;
11171;SDS011;5642;50.830;12.082;2023-12-20T08:19:52;0.75;;;0.75;;
11171;SDS011;5642;50.830;12.082;2023-12-20T08:22:59;1.77;;;1.00;;
11171;SDS011;5642;50.830;12.082;2023-12-20T08:25:36;0.90;;;0.90;;
11171;SDS011;5642;50.830;12.082;2023-12-20T08:28:18;0.75;;;0.75;;
11171;SDS011;5642;50.830;12.082;2023-12-20T08:31:05;0.60;;;0.60;;
11171;SDS011;5642;50.830;12.082;2023-12-20T08:33:32;0.50;;;0.50;;
11171;SDS011;5642;50.830;12.082;2023-12-20T08:36:11;0.50;;;0.50;;
11171;SDS011;5642;50.830;12.082;2023-12-20T08:38:43;0.40;;;0.40;;
11171;SDS011;5642;50.830;12.082;2023-12-20T08:41:18;0.40;;;0.38;;
11171;SDS011;5642;50.830;12.082;2023-12-20T08:44:04;0.55;;;0.55;;
11171;SDS011;5642;50.830;12.082;2023-12-20T08:46:54;0.60;;;0.60;;
11171;SDS011;5642;50.830;12.082;2023-12-20T08:49:35;0.70;;;0.55;;
11171;SDS011;5642;50.830;12.082;2023-12-20T08:52:21;0.77;;;0.77;;
11171;SDS011;5642;50.830;12.082;2023-12-20T08:55:08;0.93;;;0.70;;
11171;SDS011;5642;50.830;12.082;2023-12-20T08:57:51;0.57;;;0.57;;
11171;SDS011;5642;50.830;12.082;2023-12-20T09:00:32;0.63;;;0.63;;
11171;SDS011;5642;50.830;12.082;2023-12-20T09:03:21;0.75;;;0.75;;
11171;SDS011;5642;50.830;12.082;2023-12-20T09:06:04;1.02;;;0.75;;
11171;SDS011;5642;50.830;12.082;2023-12-20T09:08:46;0.80;;;0.80;;
11171;SDS011;5642;50.830;12.082;2023-12-20T09:11:23;0.60;;;0.60;;
11171;SDS011;5642;50.830;12.082;2023-12-20T09:14:12;0.70;;;0.70;;
11171;SDS011;5642;50.830;12.082;2023-12-20T09:16:47;1.33;;;0.70;;
11171;SDS011;5642;50.830;12.082;2023-12-20T09:19:30;0.70;;;0.70;;
11171;SDS011;5642;50.830;12.082;2023-12-20T09:22:12;0.82;;;0.80;;
11171;SDS011;5642;50.830;12.082;2023-12-20T09:24:53;0.60;;;0.60;;
11171;SDS011;5642;50.830;12.082;2023-12-20T09:27:33;0.40;;;0.40;;
11171;SDS011;5642;50.830;12.082;2023-12-20T09:30:18;0.70;;;0.70;;
11171;SDS011;5642;50.830;12.082;2023-12-20T09:32:52;0.60;;;0.60;;
11171;SDS011;5642;50.830;12.082;2023-12-20T09:35:38;0.73;;;0.70;;
11171;SDS011;5642;50.830;12.082;2023-12-20T09:38:17;0.70;;;0.70;;
11171;SDS011;5642;50.830;12.082;2023-12-20T09:40:52;0.80;;;0.80;;
11171;SDS011;5642;50.830;12.082;2023-12-20T09:43:27;0.60;;;0.60;;
11171;SDS011;5642;50.830;12.082;2023-12-20T09:46:12;1.15;;;0.80;;
11171;SDS011;5642;50.830;12.082;2023-12-20T09:48:56;0.90;;;0.90;;
11171;SDS011;5642;50.830;12.082;2023-12-20T09:51:30;0.60;;;0.60;;
11171;SDS011;5642;50.830;12.082;2023-12-20T09:54:04;0.80;;;0.80;;
11171;SDS011;5642;50.830;12.082;2023-12-20T09:56:44;0.70;;;0.70;;
11171;SDS011;5642;50.830;12.082;2023-12-20T09:59:11;1.42;;;1.00;;
11171;SDS011;5642;50.830;12.082;2023-12-20T10:01:53;0.85;;;0.70;;
11171;SDS011;5642;50.830;12.082;2023-12-20T10:04:38;0.70;;;0.70;;
11171;SDS011;5642;50.830;12.082;2023-12-20T10:12:39;0.70;;;0.70;;
11171;SDS011;5642;50.830;12.082;2023-12-20T10:15:23;0.85;;;0.68;;
11171;SDS011;5642;50.830;12.082;2023-12-20T10:17:56;1.33;;;1.02;;
11171;SDS011;5642;50.830;12.082;2023-12-20T10:20:37;2.13;;;1.70;;
11171;SDS011;5642;50.830;12.082;2023-12-20T10:23:28;1.90;;;1.58;;
11171;SDS011;5642;50.830;12.082;2023-12-20T10:26:20;2.35;;;1.95;;
11171;SDS011;5642;50.830;12.082;2023-12-20T10:29:10;1.50;;;1.30;;
11171;SDS011;5642;50.830;12.082;2023-12-20T10:31:41;1.20;;;1.10;;
11171;SDS011;5642;50.830;12.082;2023-12-20T10:34:33;1.17;;;1.00;;
11171;SDS011;5642;50.830;12.082;2023-12-20T10:37:17;1.35;;;1.05;;
11171;SDS011;5642;50.830;12.082;2023-12-20T10:40:13;1.23;;;1.05;;
11171;SDS011;5642;50.830;12.082;2023-12-20T10:42:48;0.90;;;0.70;;
11171;SDS011;5642;50.830;12.082;2023-12-20T10:45:27;0.80;;;0.60;;
11171;SDS011;5642;50.830;12.082;2023-12-20T10:47:58;0.60;;;0.60;;
11171;SDS011;5642;50.830;12.082;2023-12-20T10:51:04;0.60;;;0.60;;
11171;SDS011;5642;50.830;12.082;2023-12-20T10:53:43;0.68;;;0.57;;
11171;SDS011;5642;50.830;12.082;2023-12-20T10:56:32;0.70;;;0.70;;
11171;SDS011;5642;50.830;12.082;2023-12-20T10:59:27;0.60;;;0.60;;
11171;SDS011;5642;50.830;12.082;2023-12-20T11:02:12;0.88;;;0.60;;
11171;SDS011;5642;50.830;12.082;2023-12-20T11:05:04;0.77;;;0.45;;
11171;SDS011;5642;50.830;12.082;2023-12-20T11:07:35;0.60;;;0.55;;
11171;SDS011;5642;50.830;12.082;2023-12-20T11:10:29;0.63;;;0.50;;
11171;SDS011;5642;50.830;12.082;2023-12-20T11:13:23;0.52;;;0.40;;
11171;SDS011;5642;50.830;12.082;2023-12-20T11:16:37;0.40;;;0.40;;
11171;SDS011;5642;50.830;12.082;2023-12-20T11:19:22;0.50;;;0.50;;
11171;SDS011;5642;50.830;12.082;2023-12-20T11:22:03;0.50;;;0.50;;
11171;SDS011;5642;50.830;12.082;2023-12-20T11:24:41;1.25;;;0.55;;
11171;SDS011;5642;50.830;12.082;2023-12-20T11:27:32;0.32;;;0.32;;
11171;SDS011;5642;50.830;12.082;2023-12-20T11:30:26;0.50;;;0.50;;
11171;SDS011;5642;50.830;12.082;2023-12-20T11:33:16;1.23;;;0.90;;
11171;SDS011;5642;50.830;12.082;2023-12-20T11:36:02;1.90;;;1.60;;
11171;SDS011;5642;50.830;12.082;2023-12-20T11:38:57;1.70;;;1.60;;
11171;SDS011;5642;50.830;12.082;2023-12-20T11:41:28;1.98;;;1.50;;
11171;SDS011;5642;50.830;12.082;2023-12-20T11:44:20;1.50;;;1.27;;
11171;SDS011;5642;50.830;12.082;2023-12-20T11:46:59;0.90;;;0.90;;
11171;SDS011;5642;50.830;12.082;2023-12-20T11:49:42;1.50;;;0.80;;
11171;SDS011;5642;50.830;12.082;2023-12-20T11:52:17;1.10;;;0.90;;
11171;SDS011;5642;50.830;12.082;2023-12-20T11:55:16;0.70;;;0.68;;
11171;SDS011;5642;50.830;12.082;2023-12-20T11:57:57;1.00;;;0.82;;
11171;SDS011;5642;50.830;12.082;2023-12-20T12:00:39;0.88;;;0.80;;
11171;SDS011;5642;50.830;12.082;2023-12-20T12:03:30;0.70;;;0.70;;
11171;SDS011;5642;50.830;12.082;2023-12-20T12:06:03;0.60;;;0.60;;
11171;SDS011;5642;50.830;12.082;2023-12-20T12:08:46;0.77;;;0.65;;
11171;SDS011;5642;50.830;12.082;2023-12-20T12:11:24;0.80;;;0.70;;
11171;SDS011;5642;50.830;12.082;2023-12-20T12:14:06;0.90;;;0.70;;
11171;SDS011;5642;50.830;12.082;2023-12-20T12:16:44;0.90;;;0.68;;
11171;SDS011;5642;50.830;12.082;2023-12-20T12:19:25;1.42;;;0.75;;
11171;SDS011;5642;50.830;12.082;2023-12-20T12:25:09;2.92;;;2.45;;
11171;SDS011;5642;50.830;12.082;2023-12-20T12:28:04;2.47;;;1.67;;
11171;SDS011;5642;50.830;12.082;2023-12-20T12:30:57;1.20;;;1.10;;
11171;SDS011;5642;50.830;12.082;2023-12-20T12:33:39;1.52;;;1.20;;
11171;SDS011;5642;50.830;12.082;2023-12-20T12:36:17;3.10;;;1.27;;
11171;SDS011;5642;50.830;12.082;2023-12-20T12:39:13;0.80;;;0.80;;
11171;SDS011;5642;50.830;12.082;2023-12-20T12:42:09;1.75;;;1.00;;
11171;SDS011;5642;50.830;12.082;2023-12-20T12:44:58;0.93;;;0.70;;
11171;SDS011;5642;50.830;12.082;2023-12-20T12:47:39;0.68;;;0.60;;
11171;SDS011;5642;50.830;12.082;2023-12-20T12:50:06;0.60;;;0.60;;
11171;SDS011;5642;50.830;12.082;2023-12-20T12:52:47;0.70;;;0.70;;
11171;SDS011;5642;50.830;12.082;2023-12-20T12:55:14;0.60;;;0.60;;
11171;SDS011;5642;50.830;12.082;2023-12-20T12:58:04;0.60;;;0.60;;
11171;SDS011;5642;50.830;12.082;2023-12-20T13:00:32;0.40;;;0.40;;
11171;SDS011;5642;50.830;12.082;2023-12-20T13:03:10;0.65;;;0.65;;
11171;SDS011;5642;50.830;12.082;2023-12-20T13:05:45;0.63;;;0.63;;
11171;SDS011;5642;50.830;12.082;2023-12-20T13:08:32;1.48;;;0.70;;
11171;SDS011;5642;50.830;12.082;2023-12-20T13:14:57;0.55;;;0.55;;
11171;SDS011;5642;50.830;12.082;2023-12-20T13:23:42;0.82;;;0.73;;
11171;SDS011;5642;50.830;12.082;2023-12-20T13:26:13;0.80;;;0.70;;
11171;SDS011;5642;50.830;12.082;2023-12-20T13:28:58;0.70;;;0.70;;
11171;SDS011;5642;50.830;12.082;2023-12-20T13:31:38;0.60;;;0.60;;
11171;SDS011;5642;50.830;12.082;2023-12-20T13:34:24;1.15;;;0.60;;
11171;SDS011;5642;50.830;12.082;2023-12-20T13:36:51;0.47;;;0.47;;
11171;SDS011;5642;50.830;12.082;2023-12-20T13:39:32;0.70;;;0.70;;
11171;SDS011;5642;50.830;12.082;2023-12-20T13:42:09;0.77;;;0.50;;
11171;SDS011;5642;50.830;12.082;2023-12-20T13:44:59;0.73;;;0.70;;
11171;SDS011;5642;50.830;12.082;2023-12-20T13:47:27;0.60;;;0.60;;
11171;SDS011;5642;50.830;12.082;2023-12-20T13:50:17;1.05;;;0.70;;
11171;SDS011;5642;50.830;12.082;2023-12-20T13:52:55;0.60;;;0.60;;
11171;SDS011;5642;50.830;12.082;2023-12-20T13:55:40;0.60;;;0.60;;
11171;SDS011;5642;50.830;12.082;2023-12-20T13:58:11;0.70;;;0.70;;
11171;SDS011;5642;50.830;12.082;2023-12-20T14:01:09;0.50;;;0.50;;
11171;SDS011;5642;50.830;12.082;2023-12-20T14:03:56;0.55;;;0.55;;
11171;SDS011;5642;50.830;12.082;2023-12-20T14:06:39;0.52;;;0.52;;
11171;SDS011;5642;50.830;12.082;2023-12-20T14:09:07;0.60;;;0.57;;
11171;SDS011;5642;50.830;12.082;2023-12-20T14:19:07;0.40;;;0.40;;
11171;SDS011;5642;50.830;12.082;2023-12-20T14:21:35;0.50;;;0.50;;
11171;SDS011;5642;50.830;12.082;2023-12-20T14:27:49;0.77;;;0.50;;
11171;SDS011;5642;50.830;12.082;2023-12-20T14:30:35;1.05;;;0.60;;
11171;SDS011;5642;50.830;12.082;2023-12-20T14:37:07;0.60;;;0.60;;
11171;SDS011;5642;50.830;12.082;2023-12-20T14:39:41;0.60;;;0.50;;
11171;SDS011;5642;50.830;12.082;2023-12-20T14:42:08;0.90;;;0.80;;
11171;SDS011;5642;50.830;12.082;2023-12-20T14:45:01;0.50;;;0.50;;
11171;SDS011;5642;50.830;12.082;2023-12-20T14:47:50;0.63;;;0.60;;
11171;SDS011;5642;50.830;12.082;2023-12-20T14:51:04;0.60;;;0.60;;
11171;SDS011;5642;50.830;12.082;2023-12-20T14:53:51;0.63;;;0.60;;
11171;SDS011;5642;50.830;12.082;2023-12-20T14:56:36;0.50;;;0.50;;
11171;SDS011;5642;50.830;12.082;2023-12-20T14:59:18;0.70;;;0.60;;
11171;SDS011;5642;50.830;12.082;2023-12-20T15:02:02;0.60;;;0.60;;
11171;SDS011;5642;50.830;12.082;2023-12-20T15:04:44;0.63;;;0.43;;
11171;SDS011;5642;50.830;12.082;2023-12-20T15:07:15;0.50;;;0.50;;
11171;SDS011;5642;50.830;12.082;2023-12-20T15:09:57;1.02;;;0.60;;
11171;SDS011;5642;50.830;12.082;2023-12-20T15:12:46;0.50;;;0.50;;
11171;SDS011;5642;50.830;12.082;2023-12-20T15:15:32;0.95;;;0.47;;
11171;SDS011;5642;50.830;12.082;2023-12-20T15:18:17;0.65;;;0.65;;
11171;SDS011;5642;50.830;12.082;2023-12-20T15:20:58;1.25;;;0.85;;
11171;SDS011;5642;50.830;12.082;2023-12-20T15:23:37;0.75;;;0.70;;
11171;SDS011;5642;50.830;12.082;2023-12-20T15:26:29;0.50;;;0.50;;
11171;SDS011;5642;50.830;12.082;2023-12-20T15:29:13;1.45;;;0.73;;
11171;SDS011;5642;50.830;12.082;2023-12-20T15:31:44;0.70;;;0.70;;
11171;SDS011;5642;50.830;12.082;2023-12-20T15:34:15;0.55;;;0.55;;
11171;SDS011;5642;50.830;12.082;2023-12-20T15:37:00;1.25;;;0.60;;
11171;SDS011;5642;50.830;12.082;2023-12-20T15:39:28;1.20;;;0.52;;
11171;SDS011;5642;50.830;12.082;2023-12-20T15:41:55;0.60;;;0.60;;
11171;SDS011;5642;50.830;12.082;2023-12-20T15:44:33;1.23;;;0.70;;
11171;SDS011;5642;50.830;12.082;2023-12-20T15:47:28;0.50;;;0.50;;
11171;SDS011;5642;50.830;12.082;2023-12-20T15:50:22;0.60;;;0.60;;
11171;SDS011;5642;50.830;12.082;2023-12-20T15:52:51;0.47;;;0.47;;
11171;SDS011;5642;50.830;12.082;2023-12-20T15:55:34;1.05;;;0.70;;
11171;SDS011;5642;50.830;12.082;2023-12-20T15:58:11;0.60;;;0.60;;
11171;SDS011;5642;50.830;12.082;2023-12-20T16:00:45;0.55;;;0.55;;
11171;SDS011;5642;50.830;12.082;2023-12-20T16:03:22;0.93;;;0.70;;
11171;SDS011;5642;50.830;12.082;2023-12-20T16:05:48;0.63;;;0.57;;
11171;SDS011;5642;50.830;12.082;2023-12-20T16:08:29;1.02;;;0.52;;
11171;SDS011;5642;50.830;12.082;2023-12-20T16:10:55;0.68;;;0.68;;
11171;SDS011;5642;50.830;12.082;2023-12-20T16:13:32;0.50;;;0.50;;
11171;SDS011;5642;50.830;12.082;2023-12-20T16:16:04;0.50;;;0.50;;
11171;SDS011;5642;50.830;12.082;2023-12-20T16:18:50;0.60;;;0.60;;
11171;SDS011;5642;50.830;12.082;2023-12-20T16:21:21;0.88;;;0.80;;
11171;SDS011;5642;50.830;12.082;2023-12-20T16:24:04;0.65;;;0.60;;
11171;SDS011;5642;50.830;12.082;2023-12-20T16:27:08;1.55;;;0.88;;
11171;SDS011;5642;50.830;12.082;2023-12-20T16:30:14;0.90;;;0.70;;
11171;SDS011;5642;50.830;12.082;2023-12-20T16:32:54;0.50;;;0.50;;
11171;SDS011;5642;50.830;12.082;2023-12-20T16:35:20;0.63;;;0.57;;
11171;SDS011;5642;50.830;12.082;2023-12-20T16:37:49;0.60;;;0.60;;
11171;SDS011;5642;50.830;12.082;2023-12-20T16:40:34;0.57;;;0.57;;
11171;SDS011;5642;50.830;12.082;2023-12-20T16:43:09;0.75;;;0.60;;
11171;SDS011;5642;50.830;12.082;2023-12-20T16:45:38;0.60;;;0.60;;